sensor_id;sensor_type;location;lat;lon;timestamp;P1;durP1;ratioP1;P2;durP2;ratioP2
52306;SDS011;38249;48.920;12.882;2022-08-03T00:00:08;2.28;;;1.50;;
52306;SDS011;38249;48.920;12.882;2022-08-03T00:02:38;1.67;;;1.58;;
52306;SDS011;38249;48.920;12.882;2022-08-03T00:05:05;6.72;;;1.65;;
52306;SDS011;38249;48.920;12.882;2022-08-03T00:07:32;1.60;;;1.50;;
52306;SDS011;38249;48.920;12.882;2022-08-03T00:09:58;1.67;;;1.50;;
52306;SDS011;38249;48.920;12.882;2022-08-03T00:12:25;2.30;;;1.73;;
52306;SDS011;38249;48.920;12.882;2022-08-03T00:14:52;2.83;;;1.80;;
52306;SDS011;38249;48.920;12.882;2022-08-03T00:17:19;1.30;;;1.20;;
52306;SDS011;38249;48.920;12.882;2022-08-03T00:19:46;2.60;;;1.77;;
52306;SDS011;38249;48.920;12.882;2022-08-03T00:22:12;3.28;;;2.00;;
52306;SDS011;38249;48.920;12.882;2022-08-03T00:24:39;1.58;;;1.48;;
52306;SDS011;38249;48.920;12.882;2022-08-03T00:27:06;3.75;;;1.50;;
52306;SDS011;38249;48.920;12.882;2022-08-03T00:29:32;1.73;;;1.63;;
52306;SDS011;38249;48.920;12.882;2022-08-03T00:31:59;1.60;;;1.40;;
52306;SDS011;38249;48.920;12.882;2022-08-03T00:34:26;1.65;;;1.55;;
52306;SDS011;38249;48.920;12.882;2022-08-03T00:36:53;2.85;;;1.77;;
52306;SDS011;38249;48.920;12.882;2022-08-03T00:39:20;1.50;;;1.40;;
52306;SDS011;38249;48.920;12.882;2022-08-03T00:41:46;2.13;;;1.40;;
52306;SDS011;38249;48.920;12.882;2022-08-03T00:44:13;4.25;;;1.75;;
52306;SDS011;38249;48.920;12.882;2022-08-03T00:46:39;1.55;;;1.45;;
52306;SDS011;38249;48.920;12.882;2022-08-03T00:49:06;1.83;;;1.45;;
52306;SDS011;38249;48.920;12.882;2022-08-03T00:51:34;2.85;;;1.90;;
52306;SDS011;38249;48.920;12.882;2022-08-03T00:54:00;1.65;;;1.40;;
52306;SDS011;38249;48.920;12.882;2022-08-03T00:56:27;1.70;;;1.40;;
52306;SDS011;38249;48.920;12.882;2022-08-03T00:58:53;2.28;;;1.65;;
52306;SDS011;38249;48.920;12.882;2022-08-03T01:01:22;1.73;;;1.50;;
52306;SDS011;38249;48.920;12.882;2022-08-03T01:03:49;2.63;;;1.65;;
52306;SDS011;38249;48.920;12.882;2022-08-03T01:06:16;2.65;;;1.52;;
52306;SDS011;38249;48.920;12.882;2022-08-03T01:08:47;1.73;;;1.42;;
52306;SDS011;38249;48.920;12.882;2022-08-03T01:11:23;2.45;;;1.65;;
52306;SDS011;38249;48.920;12.882;2022-08-03T01:13:59;2.80;;;1.50;;
52306;SDS011;38249;48.920;12.882;2022-08-03T01:16:30;1.42;;;1.33;;
52306;SDS011;38249;48.920;12.882;2022-08-03T01:19:07;1.95;;;1.70;;
52306;SDS011;38249;48.920;12.882;2022-08-03T01:21:47;1.83;;;1.63;;
52306;SDS011;38249;48.920;12.882;2022-08-03T01:24:29;1.73;;;1.20;;
52306;SDS011;38249;48.920;12.882;2022-08-03T01:27:02;1.85;;;1.50;;
52306;SDS011;38249;48.920;12.882;2022-08-03T01:29:41;1.70;;;1.60;;
52306;SDS011;38249;48.920;12.882;2022-08-03T01:32:18;2.10;;;1.38;;
52306;SDS011;38249;48.920;12.882;2022-08-03T01:34:53;2.10;;;1.70;;
52306;SDS011;38249;48.920;12.882;2022-08-03T01:37:25;1.60;;;1.50;;
52306;SDS011;38249;48.920;12.882;2022-08-03T01:39:56;4.45;;;1.80;;
52306;SDS011;38249;48.920;12.882;2022-08-03T01:42:27;2.17;;;1.92;;
52306;SDS011;38249;48.920;12.882;2022-08-03T01:44:57;1.60;;;1.30;;
52306;SDS011;38249;48.920;12.882;2022-08-03T01:47:27;3.05;;;1.60;;
52306;SDS011;38249;48.920;12.882;2022-08-03T01:49:55;1.73;;;1.63;;
52306;SDS011;38249;48.920;12.882;2022-08-03T01:52:23;4.28;;;1.77;;
52306;SDS011;38249;48.920;12.882;2022-08-03T01:54:51;1.67;;;1.55;;
52306;SDS011;38249;48.920;12.882;2022-08-03T01:57:19;1.85;;;1.70;;
52306;SDS011;38249;48.920;12.882;2022-08-03T01:59:48;3.08;;;1.60;;
52306;SDS011;38249;48.920;12.882;2022-08-03T02:02:17;1.80;;;1.52;;
52306;SDS011;38249;48.920;12.882;2022-08-03T02:04:44;2.10;;;1.65;;
52306;SDS011;38249;48.920;12.882;2022-08-03T02:07:12;1.40;;;1.30;;
52306;SDS011;38249;48.920;12.882;2022-08-03T02:09:41;2.03;;;1.60;;
52306;SDS011;38249;48.920;12.882;2022-08-03T02:12:10;1.73;;;1.63;;
52306;SDS011;38249;48.920;12.882;2022-08-03T02:14:39;1.58;;;1.48;;
52306;SDS011;38249;48.920;12.882;2022-08-03T02:17:06;1.83;;;1.45;;
52306;SDS011;38249;48.920;12.882;2022-08-03T02:19:35;1.48;;;1.38;;
52306;SDS011;38249;48.920;12.882;2022-08-03T02:22:02;1.50;;;1.40;;
52306;SDS011;38249;48.920;12.882;2022-08-03T02:24:30;2.35;;;1.50;;
52306;SDS011;38249;48.920;12.882;2022-08-03T02:26:57;2.65;;;1.70;;
52306;SDS011;38249;48.920;12.882;2022-08-03T02:29:26;1.50;;;1.40;;
52306;SDS011;38249;48.920;12.882;2022-08-03T02:31:57;1.73;;;1.42;;
52306;SDS011;38249;48.920;12.882;2022-08-03T02:34:28;2.08;;;1.58;;
52306;SDS011;38249;48.920;12.882;2022-08-03T02:37:00;2.55;;;1.50;;
52306;SDS011;38249;48.920;12.882;2022-08-03T02:39:30;2.33;;;1.70;;
52306;SDS011;38249;48.920;12.882;2022-08-03T02:41:58;3.67;;;1.52;;
52306;SDS011;38249;48.920;12.882;2022-08-03T02:44:28;2.63;;;1.98;;
52306;SDS011;38249;48.920;12.882;2022-08-03T02:46:58;1.60;;;1.50;;
52306;SDS011;38249;48.920;12.882;2022-08-03T02:49:27;3.15;;;1.70;;
52306;SDS011;38249;48.920;12.882;2022-08-03T02:51:54;2.13;;;1.40;;
52306;SDS011;38249;48.920;12.882;2022-08-03T02:54:25;1.33;;;1.23;;
52306;SDS011;38249;48.920;12.882;2022-08-03T02:56:53;1.90;;;1.70;;
52306;SDS011;38249;48.920;12.882;2022-08-03T02:59:22;2.20;;;1.60;;
52306;SDS011;38249;48.920;12.882;2022-08-03T03:01:48;1.50;;;1.40;;
52306;SDS011;38249;48.920;12.882;2022-08-03T03:04:17;1.65;;;1.55;;
52306;SDS011;38249;48.920;12.882;2022-08-03T03:06:44;4.10;;;1.80;;
52306;SDS011;38249;48.920;12.882;2022-08-03T03:09:11;2.70;;;2.00;;
52306;SDS011;38249;48.920;12.882;2022-08-03T03:11:39;2.33;;;1.80;;
52306;SDS011;38249;48.920;12.882;2022-08-03T03:14:08;1.80;;;1.70;;
52306;SDS011;38249;48.920;12.882;2022-08-03T03:16:37;1.70;;;1.60;;
52306;SDS011;38249;48.920;12.882;2022-08-03T03:19:05;1.88;;;1.70;;
52306;SDS011;38249;48.920;12.882;2022-08-03T03:21:33;2.08;;;1.83;;
52306;SDS011;38249;48.920;12.882;2022-08-03T03:24:01;1.45;;;1.35;;
52306;SDS011;38249;48.920;12.882;2022-08-03T03:26:30;2.58;;;1.63;;
52306;SDS011;38249;48.920;12.882;2022-08-03T03:28:58;3.00;;;2.25;;
52306;SDS011;38249;48.920;12.882;2022-08-03T03:31:26;3.88;;;2.88;;
52306;SDS011;38249;48.920;12.882;2022-08-03T03:33:52;3.17;;;2.13;;
52306;SDS011;38249;48.920;12.882;2022-08-03T03:36:20;2.90;;;2.55;;
52306;SDS011;38249;48.920;12.882;2022-08-03T03:38:46;7.85;;;5.53;;
52306;SDS011;38249;48.920;12.882;2022-08-03T03:41:13;2.08;;;1.88;;
52306;SDS011;38249;48.920;12.882;2022-08-03T03:43:40;2.97;;;1.90;;
52306;SDS011;38249;48.920;12.882;2022-08-03T03:46:09;2.33;;;2.13;;
52306;SDS011;38249;48.920;12.882;2022-08-03T03:48:37;2.38;;;1.70;;
52306;SDS011;38249;48.920;12.882;2022-08-03T03:51:04;6.07;;;4.88;;
52306;SDS011;38249;48.920;12.882;2022-08-03T03:53:32;3.72;;;3.10;;
52306;SDS011;38249;48.920;12.882;2022-08-03T03:55:58;2.17;;;1.98;;
52306;SDS011;38249;48.920;12.882;2022-08-03T03:58:25;2.60;;;2.10;;
52306;SDS011;38249;48.920;12.882;2022-08-03T04:00:51;2.47;;;2.28;;
52306;SDS011;38249;48.920;12.882;2022-08-03T04:03:19;2.70;;;1.73;;
52306;SDS011;38249;48.920;12.882;2022-08-03T04:05:46;7.15;;;5.10;;
52306;SDS011;38249;48.920;12.882;2022-08-03T04:08:30;2.50;;;2.08;;
52306;SDS011;38249;48.920;12.882;2022-08-03T04:11:15;3.00;;;1.92;;
52306;SDS011;38249;48.920;12.882;2022-08-03T04:13:46;1.67;;;1.52;;
52306;SDS011;38249;48.920;12.882;2022-08-03T04:16:15;3.30;;;2.35;;
52306;SDS011;38249;48.920;12.882;2022-08-03T04:18:48;3.85;;;2.20;;
52306;SDS011;38249;48.920;12.882;2022-08-03T04:21:17;3.40;;;2.67;;
52306;SDS011;38249;48.920;12.882;2022-08-03T04:23:47;3.00;;;1.85;;
52306;SDS011;38249;48.920;12.882;2022-08-03T04:26:17;1.80;;;1.70;;
52306;SDS011;38249;48.920;12.882;2022-08-03T04:28:46;3.65;;;2.10;;
52306;SDS011;38249;48.920;12.882;2022-08-03T04:31:15;2.08;;;1.90;;
52306;SDS011;38249;48.920;12.882;2022-08-03T04:33:43;3.05;;;2.70;;
52306;SDS011;38249;48.920;12.882;2022-08-03T04:36:13;2.13;;;1.90;;
52306;SDS011;38249;48.920;12.882;2022-08-03T04:38:43;3.30;;;3.00;;
52306;SDS011;38249;48.920;12.882;2022-08-03T04:41:18;3.50;;;2.80;;
52306;SDS011;38249;48.920;12.882;2022-08-03T04:43:45;2.63;;;2.03;;
52306;SDS011;38249;48.920;12.882;2022-08-03T04:46:14;3.67;;;2.10;;
52306;SDS011;38249;48.920;12.882;2022-08-03T04:48:41;2.67;;;2.28;;
52306;SDS011;38249;48.920;12.882;2022-08-03T04:51:09;1.70;;;1.60;;
52306;SDS011;38249;48.920;12.882;2022-08-03T04:53:38;3.25;;;1.65;;
52306;SDS011;38249;48.920;12.882;2022-08-03T04:56:05;2.10;;;1.90;;
52306;SDS011;38249;48.920;12.882;2022-08-03T04:58:32;2.53;;;2.25;;
52306;SDS011;38249;48.920;12.882;2022-08-03T05:00:59;2.33;;;2.13;;
52306;SDS011;38249;48.920;12.882;2022-08-03T05:03:25;3.70;;;1.88;;
52306;SDS011;38249;48.920;12.882;2022-08-03T05:05:52;3.13;;;2.75;;
52306;SDS011;38249;48.920;12.882;2022-08-03T05:08:20;1.60;;;1.50;;
52306;SDS011;38249;48.920;12.882;2022-08-03T05:10:47;2.60;;;1.92;;
52306;SDS011;38249;48.920;12.882;2022-08-03T05:13:14;2.50;;;1.80;;
52306;SDS011;38249;48.920;12.882;2022-08-03T05:15:40;3.58;;;2.40;;
52306;SDS011;38249;48.920;12.882;2022-08-03T05:18:07;2.00;;;1.80;;
52306;SDS011;38249;48.920;12.882;2022-08-03T05:20:33;2.70;;;2.38;;
52306;SDS011;38249;48.920;12.882;2022-08-03T05:23:00;2.47;;;2.28;;
52306;SDS011;38249;48.920;12.882;2022-08-03T05:25:28;2.63;;;1.63;;
52306;SDS011;38249;48.920;12.882;2022-08-03T05:27:56;3.55;;;2.75;;
52306;SDS011;38249;48.920;12.882;2022-08-03T05:30:22;2.08;;;1.88;;
52306;SDS011;38249;48.920;12.882;2022-08-03T05:32:49;6.25;;;5.30;;
52306;SDS011;38249;48.920;12.882;2022-08-03T05:35:15;6.45;;;5.25;;
52306;SDS011;38249;48.920;12.882;2022-08-03T05:37:42;4.07;;;2.58;;
52306;SDS011;38249;48.920;12.882;2022-08-03T05:40:09;2.08;;;1.88;;
52306;SDS011;38249;48.920;12.882;2022-08-03T05:42:36;4.50;;;3.67;;
52306;SDS011;38249;48.920;12.882;2022-08-03T05:45:04;4.43;;;3.58;;
52306;SDS011;38249;48.920;12.882;2022-08-03T05:47:38;3.22;;;2.92;;
52306;SDS011;38249;48.920;12.882;2022-08-03T05:50:05;8.40;;;6.07;;
52306;SDS011;38249;48.920;12.882;2022-08-03T05:52:32;2.28;;;2.03;;
52306;SDS011;38249;48.920;12.882;2022-08-03T05:54:59;4.70;;;3.08;;
52306;SDS011;38249;48.920;12.882;2022-08-03T05:57:25;5.43;;;3.85;;
52306;SDS011;38249;48.920;12.882;2022-08-03T05:59:52;4.75;;;3.13;;
52306;SDS011;38249;48.920;12.882;2022-08-03T06:02:20;2.72;;;2.40;;
52306;SDS011;38249;48.920;12.882;2022-08-03T06:04:46;2.88;;;2.60;;
52306;SDS011;38249;48.920;12.882;2022-08-03T06:07:13;3.85;;;3.25;;
52306;SDS011;38249;48.920;12.882;2022-08-03T06:09:39;7.60;;;5.18;;
52306;SDS011;38249;48.920;12.882;2022-08-03T06:12:06;8.15;;;4.68;;
52306;SDS011;38249;48.920;12.882;2022-08-03T06:14:33;5.93;;;4.97;;
52306;SDS011;38249;48.920;12.882;2022-08-03T06:16:59;5.20;;;4.68;;
52306;SDS011;38249;48.920;12.882;2022-08-03T06:19:27;3.03;;;2.63;;
52306;SDS011;38249;48.920;12.882;2022-08-03T06:21:53;2.78;;;2.50;;
52306;SDS011;38249;48.920;12.882;2022-08-03T06:24:20;8.25;;;6.88;;
52306;SDS011;38249;48.920;12.882;2022-08-03T06:26:46;13.38;;;11.32;;
52306;SDS011;38249;48.920;12.882;2022-08-03T06:29:13;6.68;;;5.20;;
52306;SDS011;38249;48.920;12.882;2022-08-03T06:31:39;4.38;;;3.95;;
52306;SDS011;38249;48.920;12.882;2022-08-03T06:34:06;3.00;;;2.67;;
52306;SDS011;38249;48.920;12.882;2022-08-03T06:36:34;5.07;;;4.57;;
52306;SDS011;38249;48.920;12.882;2022-08-03T06:39:00;4.00;;;1.70;;
52306;SDS011;38249;48.920;12.882;2022-08-03T06:41:27;4.50;;;4.10;;
52306;SDS011;38249;48.920;12.882;2022-08-03T06:43:54;2.22;;;1.70;;
52306;SDS011;38249;48.920;12.882;2022-08-03T06:46:20;3.00;;;1.40;;
52306;SDS011;38249;48.920;12.882;2022-08-03T06:48:47;1.67;;;1.52;;
52306;SDS011;38249;48.920;12.882;2022-08-03T06:51:13;1.60;;;1.45;;
52306;SDS011;38249;48.920;12.882;2022-08-03T06:53:41;1.90;;;1.73;;
52306;SDS011;38249;48.920;12.882;2022-08-03T06:56:08;1.85;;;1.60;;
52306;SDS011;38249;48.920;12.882;2022-08-03T06:58:35;2.53;;;1.55;;
52306;SDS011;38249;48.920;12.882;2022-08-03T07:01:01;2.17;;;1.77;;
52306;SDS011;38249;48.920;12.882;2022-08-03T07:03:28;2.22;;;1.80;;
52306;SDS011;38249;48.920;12.882;2022-08-03T07:05:54;2.42;;;1.92;;
52306;SDS011;38249;48.920;12.882;2022-08-03T07:08:21;2.03;;;1.83;;
52306;SDS011;38249;48.920;12.882;2022-08-03T07:10:49;3.88;;;1.95;;
52306;SDS011;38249;48.920;12.882;2022-08-03T07:13:16;2.05;;;1.90;;
52306;SDS011;38249;48.920;12.882;2022-08-03T07:15:42;2.10;;;1.90;;
52306;SDS011;38249;48.920;12.882;2022-08-03T07:18:09;3.78;;;2.08;;
52306;SDS011;38249;48.920;12.882;2022-08-03T07:20:35;3.13;;;1.92;;
52306;SDS011;38249;48.920;12.882;2022-08-03T07:23:02;2.35;;;2.15;;
52306;SDS011;38249;48.920;12.882;2022-08-03T07:25:28;2.03;;;1.85;;
52306;SDS011;38249;48.920;12.882;2022-08-03T07:27:56;3.03;;;2.08;;
52306;SDS011;38249;48.920;12.882;2022-08-03T07:30:23;2.25;;;2.05;;
52306;SDS011;38249;48.920;12.882;2022-08-03T07:32:49;2.25;;;1.90;;
52306;SDS011;38249;48.920;12.882;2022-08-03T07:35:16;2.15;;;1.98;;
52306;SDS011;38249;48.920;12.882;2022-08-03T07:37:42;3.70;;;2.88;;
52306;SDS011;38249;48.920;12.882;2022-08-03T07:40:09;2.45;;;1.90;;
52306;SDS011;38249;48.920;12.882;2022-08-03T07:42:35;2.50;;;2.30;;
52306;SDS011;38249;48.920;12.882;2022-08-03T07:45:04;1.95;;;1.80;;
52306;SDS011;38249;48.920;12.882;2022-08-03T07:47:32;2.13;;;1.80;;
52306;SDS011;38249;48.920;12.882;2022-08-03T07:49:58;3.83;;;2.10;;
52306;SDS011;38249;48.920;12.882;2022-08-03T07:52:25;3.80;;;1.95;;
52306;SDS011;38249;48.920;12.882;2022-08-03T07:57:36;2.50;;;2.05;;
52306;SDS011;38249;48.920;12.882;2022-08-03T08:00:05;2.50;;;2.03;;
52306;SDS011;38249;48.920;12.882;2022-08-03T08:02:34;2.90;;;1.90;;
52306;SDS011;38249;48.920;12.882;2022-08-03T08:05:00;2.13;;;1.80;;
52306;SDS011;38249;48.920;12.882;2022-08-03T08:07:26;2.75;;;1.73;;
52306;SDS011;38249;48.920;12.882;2022-08-03T08:09:53;2.28;;;2.08;;
52306;SDS011;38249;48.920;12.882;2022-08-03T08:12:19;2.10;;;1.90;;
52306;SDS011;38249;48.920;12.882;2022-08-03T08:14:46;3.97;;;1.90;;
52306;SDS011;38249;48.920;12.882;2022-08-03T08:17:14;2.92;;;1.83;;
52306;SDS011;38249;48.920;12.882;2022-08-03T08:19:40;2.08;;;1.85;;
52306;SDS011;38249;48.920;12.882;2022-08-03T08:22:07;2.40;;;1.80;;
52306;SDS011;38249;48.920;12.882;2022-08-03T08:24:33;2.47;;;1.92;;
52306;SDS011;38249;48.920;12.882;2022-08-03T08:27:00;3.03;;;1.77;;
52306;SDS011;38249;48.920;12.882;2022-08-03T08:29:26;2.17;;;1.95;;
52306;SDS011;38249;48.920;12.882;2022-08-03T08:31:53;2.22;;;2.03;;
52306;SDS011;38249;48.920;12.882;2022-08-03T08:34:21;3.30;;;1.70;;
52306;SDS011;38249;48.920;12.882;2022-08-03T08:36:47;4.22;;;2.30;;
52306;SDS011;38249;48.920;12.882;2022-08-03T08:39:14;2.75;;;2.08;;
52306;SDS011;38249;48.920;12.882;2022-08-03T08:41:40;3.53;;;1.90;;
52306;SDS011;38249;48.920;12.882;2022-08-03T08:44:07;3.97;;;2.00;;
52306;SDS011;38249;48.920;12.882;2022-08-03T08:46:34;2.10;;;2.00;;
52306;SDS011;38249;48.920;12.882;2022-08-03T08:49:04;1.98;;;1.55;;
52306;SDS011;38249;48.920;12.882;2022-08-03T08:51:35;2.05;;;1.85;;
52306;SDS011;38249;48.920;12.882;2022-08-03T08:54:06;2.00;;;1.48;;
52306;SDS011;38249;48.920;12.882;2022-08-03T08:56:33;3.70;;;2.00;;
52306;SDS011;38249;48.920;12.882;2022-08-03T08:59:01;2.17;;;1.83;;
52306;SDS011;38249;48.920;12.882;2022-08-03T09:01:27;1.67;;;1.50;;
52306;SDS011;38249;48.920;12.882;2022-08-03T09:03:54;2.00;;;1.90;;
52306;SDS011;38249;48.920;12.882;2022-08-03T09:06:21;4.20;;;2.15;;
52306;SDS011;38249;48.920;12.882;2022-08-03T09:08:49;3.90;;;1.70;;
52306;SDS011;38249;48.920;12.882;2022-08-03T09:11:19;2.00;;;1.80;;
52306;SDS011;38249;48.920;12.882;2022-08-03T09:13:46;2.03;;;1.75;;
52306;SDS011;38249;48.920;12.882;2022-08-03T09:16:14;2.35;;;2.15;;
52306;SDS011;38249;48.920;12.882;2022-08-03T09:18:43;2.45;;;2.25;;
52306;SDS011;38249;48.920;12.882;2022-08-03T09:21:14;5.20;;;4.70;;
52306;SDS011;38249;48.920;12.882;2022-08-03T09:23:44;4.93;;;4.43;;
52306;SDS011;38249;48.920;12.882;2022-08-03T09:26:13;2.17;;;1.80;;
52306;SDS011;38249;48.920;12.882;2022-08-03T09:28:45;2.33;;;1.35;;
52306;SDS011;38249;48.920;12.882;2022-08-03T09:31:11;1.60;;;1.50;;
52306;SDS011;38249;48.920;12.882;2022-08-03T09:33:45;1.85;;;1.52;;
52306;SDS011;38249;48.920;12.882;2022-08-03T09:39:01;2.15;;;1.50;;
52306;SDS011;38249;48.920;12.882;2022-08-03T09:41:31;1.30;;;1.20;;
52306;SDS011;38249;48.920;12.882;2022-08-03T09:43:58;1.52;;;1.42;;
52306;SDS011;38249;48.920;12.882;2022-08-03T09:46:24;4.07;;;1.50;;
52306;SDS011;38249;48.920;12.882;2022-08-03T09:49:07;1.30;;;1.20;;
52306;SDS011;38249;48.920;12.882;2022-08-03T09:51:34;2.50;;;1.27;;
52306;SDS011;38249;48.920;12.882;2022-08-03T09:54:01;1.38;;;1.27;;
52306;SDS011;38249;48.920;12.882;2022-08-03T09:56:42;3.53;;;1.42;;
52306;SDS011;38249;48.920;12.882;2022-08-03T09:59:10;2.15;;;1.20;;
52306;SDS011;38249;48.920;12.882;2022-08-03T10:01:38;1.40;;;1.30;;
52306;SDS011;38249;48.920;12.882;2022-08-03T10:04:10;1.25;;;1.10;;
52306;SDS011;38249;48.920;12.882;2022-08-03T10:06:42;1.08;;;0.98;;
52306;SDS011;38249;48.920;12.882;2022-08-03T10:09:09;2.00;;;1.15;;
52306;SDS011;38249;48.920;12.882;2022-08-03T10:11:37;2.50;;;1.30;;
52306;SDS011;38249;48.920;12.882;2022-08-03T10:14:06;1.23;;;1.13;;
52306;SDS011;38249;48.920;12.882;2022-08-03T10:16:34;1.60;;;1.50;;
52306;SDS011;38249;48.920;12.882;2022-08-03T10:19:02;1.50;;;1.40;;
52306;SDS011;38249;48.920;12.882;2022-08-03T10:21:31;2.13;;;1.20;;
52306;SDS011;38249;48.920;12.882;2022-08-03T10:24:01;1.92;;;1.20;;
52306;SDS011;38249;48.920;12.882;2022-08-03T10:26:30;1.52;;;1.20;;
52306;SDS011;38249;48.920;12.882;2022-08-03T10:28:58;2.72;;;1.10;;
52306;SDS011;38249;48.920;12.882;2022-08-03T10:31:32;1.50;;;1.10;;
52306;SDS011;38249;48.920;12.882;2022-08-03T10:34:04;2.45;;;1.42;;
52306;SDS011;38249;48.920;12.882;2022-08-03T10:36:36;1.20;;;1.10;;
52306;SDS011;38249;48.920;12.882;2022-08-03T10:39:05;3.28;;;1.33;;
52306;SDS011;38249;48.920;12.882;2022-08-03T10:41:34;1.95;;;1.10;;
52306;SDS011;38249;48.920;12.882;2022-08-03T10:44:05;1.73;;;1.20;;
52306;SDS011;38249;48.920;12.882;2022-08-03T10:46:37;2.05;;;1.10;;
52306;SDS011;38249;48.920;12.882;2022-08-03T10:49:04;2.15;;;1.00;;
52306;SDS011;38249;48.920;12.882;2022-08-03T10:51:32;1.30;;;1.20;;
52306;SDS011;38249;48.920;12.882;2022-08-03T10:53:59;1.30;;;1.17;;
52306;SDS011;38249;48.920;12.882;2022-08-03T10:56:38;1.40;;;1.08;;
52306;SDS011;38249;48.920;12.882;2022-08-03T11:05:33;1.95;;;1.30;;
52306;SDS011;38249;48.920;12.882;2022-08-03T11:08:21;4.63;;;1.13;;
52306;SDS011;38249;48.920;12.882;2022-08-03T11:10:50;1.27;;;1.10;;
52306;SDS011;38249;48.920;12.882;2022-08-03T11:13:18;1.88;;;1.20;;
52306;SDS011;38249;48.920;12.882;2022-08-03T11:15:48;0.90;;;0.90;;
52306;SDS011;38249;48.920;12.882;2022-08-03T11:18:17;1.25;;;1.02;;
52306;SDS011;38249;48.920;12.882;2022-08-03T11:20:48;0.90;;;0.90;;
52306;SDS011;38249;48.920;12.882;2022-08-03T11:23:16;1.30;;;1.20;;
52306;SDS011;38249;48.920;12.882;2022-08-03T11:28:43;1.20;;;1.10;;
52306;SDS011;38249;48.920;12.882;2022-08-03T11:34:15;0.98;;;0.98;;
52306;SDS011;38249;48.920;12.882;2022-08-03T11:39:46;2.65;;;1.00;;
52306;SDS011;38249;48.920;12.882;2022-08-03T11:45:03;2.00;;;0.90;;
52306;SDS011;38249;48.920;12.882;2022-08-03T11:47:34;0.95;;;0.95;;
52306;SDS011;38249;48.920;12.882;2022-08-03T11:50:05;1.52;;;0.98;;
52306;SDS011;38249;48.920;12.882;2022-08-03T11:52:39;1.48;;;0.88;;
52306;SDS011;38249;48.920;12.882;2022-08-03T11:55:14;2.22;;;1.02;;
52306;SDS011;38249;48.920;12.882;2022-08-03T11:57:42;1.15;;;0.90;;
52306;SDS011;38249;48.920;12.882;2022-08-03T12:00:24;1.15;;;1.00;;
52306;SDS011;38249;48.920;12.882;2022-08-03T12:03:03;0.80;;;0.80;;
52306;SDS011;38249;48.920;12.882;2022-08-03T12:05:33;1.33;;;1.10;;
52306;SDS011;38249;48.920;12.882;2022-08-03T12:08:01;1.20;;;1.00;;
52306;SDS011;38249;48.920;12.882;2022-08-03T12:10:28;1.70;;;1.20;;
52306;SDS011;38249;48.920;12.882;2022-08-03T12:12:55;3.47;;;1.17;;
52306;SDS011;38249;48.920;12.882;2022-08-03T12:15:25;1.38;;;0.90;;
52306;SDS011;38249;48.920;12.882;2022-08-03T12:17:52;1.45;;;0.77;;
52306;SDS011;38249;48.920;12.882;2022-08-03T12:20:20;3.92;;;0.93;;
52306;SDS011;38249;48.920;12.882;2022-08-03T12:22:50;2.17;;;0.95;;
52306;SDS011;38249;48.920;12.882;2022-08-03T12:25:20;1.17;;;0.88;;
52306;SDS011;38249;48.920;12.882;2022-08-03T12:27:47;0.93;;;0.90;;
52306;SDS011;38249;48.920;12.882;2022-08-03T12:30:14;1.17;;;0.90;;
52306;SDS011;38249;48.920;12.882;2022-08-03T12:32:42;1.13;;;1.02;;
52306;SDS011;38249;48.920;12.882;2022-08-03T12:35:08;0.73;;;0.73;;
52306;SDS011;38249;48.920;12.882;2022-08-03T12:37:35;2.05;;;0.90;;
52306;SDS011;38249;48.920;12.882;2022-08-03T12:40:04;0.75;;;0.75;;
52306;SDS011;38249;48.920;12.882;2022-08-03T12:42:31;1.13;;;0.82;;
52306;SDS011;38249;48.920;12.882;2022-08-03T12:44:58;0.95;;;0.95;;
52306;SDS011;38249;48.920;12.882;2022-08-03T12:47:24;1.40;;;1.00;;
52306;SDS011;38249;48.920;12.882;2022-08-03T12:49:51;1.15;;;1.00;;
52306;SDS011;38249;48.920;12.882;2022-08-03T12:52:19;0.95;;;0.95;;
52306;SDS011;38249;48.920;12.882;2022-08-03T12:54:52;0.98;;;0.90;;
52306;SDS011;38249;48.920;12.882;2022-08-03T12:57:21;1.50;;;1.40;;
52306;SDS011;38249;48.920;12.882;2022-08-03T12:59:48;0.80;;;0.80;;
52306;SDS011;38249;48.920;12.882;2022-08-03T13:02:14;0.93;;;0.88;;
52306;SDS011;38249;48.920;12.882;2022-08-03T13:04:42;0.90;;;0.90;;
52306;SDS011;38249;48.920;12.882;2022-08-03T13:07:09;0.90;;;0.90;;
52306;SDS011;38249;48.920;12.882;2022-08-03T13:09:40;0.82;;;0.80;;
52306;SDS011;38249;48.920;12.882;2022-08-03T13:12:08;1.02;;;0.80;;
52306;SDS011;38249;48.920;12.882;2022-08-03T13:14:37;1.13;;;0.95;;
52306;SDS011;38249;48.920;12.882;2022-08-03T13:17:04;1.00;;;0.70;;
52306;SDS011;38249;48.920;12.882;2022-08-03T13:19:31;0.77;;;0.75;;
52306;SDS011;38249;48.920;12.882;2022-08-03T13:21:58;1.60;;;1.00;;
52306;SDS011;38249;48.920;12.882;2022-08-03T13:24:26;2.83;;;1.00;;
52306;SDS011;38249;48.920;12.882;2022-08-03T13:26:53;0.75;;;0.75;;
52306;SDS011;38249;48.920;12.882;2022-08-03T13:29:19;1.55;;;1.15;;
52306;SDS011;38249;48.920;12.882;2022-08-03T13:31:47;0.82;;;0.82;;
52306;SDS011;38249;48.920;12.882;2022-08-03T13:34:14;0.80;;;0.80;;
52306;SDS011;38249;48.920;12.882;2022-08-03T13:36:40;1.35;;;1.10;;
52306;SDS011;38249;48.920;12.882;2022-08-03T13:39:07;0.88;;;0.75;;
52306;SDS011;38249;48.920;12.882;2022-08-03T13:41:34;2.00;;;0.90;;
52306;SDS011;38249;48.920;12.882;2022-08-03T13:44:00;0.73;;;0.73;;
52306;SDS011;38249;48.920;12.882;2022-08-03T13:46:27;1.15;;;1.10;;
52306;SDS011;38249;48.920;12.882;2022-08-03T13:48:54;1.10;;;1.00;;
52306;SDS011;38249;48.920;12.882;2022-08-03T13:51:21;1.10;;;1.00;;
52306;SDS011;38249;48.920;12.882;2022-08-03T13:53:48;1.20;;;1.10;;
52306;SDS011;38249;48.920;12.882;2022-08-03T13:56:14;1.73;;;1.20;;
52306;SDS011;38249;48.920;12.882;2022-08-03T13:58:41;2.97;;;0.90;;
52306;SDS011;38249;48.920;12.882;2022-08-03T14:01:07;1.88;;;1.17;;
52306;SDS011;38249;48.920;12.882;2022-08-03T14:03:34;0.93;;;0.93;;
52306;SDS011;38249;48.920;12.882;2022-08-03T14:06:02;1.13;;;1.08;;
52306;SDS011;38249;48.920;12.882;2022-08-03T14:08:29;1.60;;;1.20;;
52306;SDS011;38249;48.920;12.882;2022-08-03T14:10:55;1.50;;;1.05;;
52306;SDS011;38249;48.920;12.882;2022-08-03T14:13:22;1.27;;;1.17;;
52306;SDS011;38249;48.920;12.882;2022-08-03T14:15:49;1.40;;;0.95;;
52306;SDS011;38249;48.920;12.882;2022-08-03T14:18:15;2.65;;;1.10;;
52306;SDS011;38249;48.920;12.882;2022-08-03T14:20:42;1.80;;;1.05;;
52306;SDS011;38249;48.920;12.882;2022-08-03T14:23:11;1.65;;;1.20;;
52306;SDS011;38249;48.920;12.882;2022-08-03T14:25:37;2.80;;;1.10;;
52306;SDS011;38249;48.920;12.882;2022-08-03T14:28:05;0.88;;;0.88;;
52306;SDS011;38249;48.920;12.882;2022-08-03T14:30:32;1.23;;;1.15;;
52306;SDS011;38249;48.920;12.882;2022-08-03T14:32:59;5.97;;;5.47;;
52306;SDS011;38249;48.920;12.882;2022-08-03T14:35:26;1.83;;;1.73;;
52306;SDS011;38249;48.920;12.882;2022-08-03T14:37:52;3.10;;;2.80;;
52306;SDS011;38249;48.920;12.882;2022-08-03T14:40:20;1.95;;;1.02;;
52306;SDS011;38249;48.920;12.882;2022-08-03T14:42:47;1.27;;;1.17;;
52306;SDS011;38249;48.920;12.882;2022-08-03T14:45:13;1.90;;;1.15;;
52306;SDS011;38249;48.920;12.882;2022-08-03T15:06:43;4.43;;;1.60;;
52306;SDS011;38249;48.920;12.882;2022-08-03T15:09:09;1.40;;;1.30;;
52306;SDS011;38249;48.920;12.882;2022-08-03T15:11:36;3.15;;;1.50;;
52306;SDS011;38249;48.920;12.882;2022-08-03T15:14:02;1.60;;;1.45;;
52306;SDS011;38249;48.920;12.882;2022-08-03T15:16:29;1.23;;;1.20;;
52306;SDS011;38249;48.920;12.882;2022-08-03T15:18:55;1.52;;;1.42;;
52306;SDS011;38249;48.920;12.882;2022-08-03T15:21:22;2.75;;;1.55;;